This is the latest recevied weather packets stored in our database for station/object HB9BHU-8. If no packets are shown the sender has not sent any weather packets the latest 10 day(s).
| Time | Temp. | Humidity | Pressure | Rain* | Wind** | Luminosity | Snow |
|---|---|---|---|---|---|---|---|
| 1777933839 | 10° C | 94% | 1014.9 hPa | 0 mm | - | - | - |
| 1777927537 | 11.67° C | 90% | 1015.7 hPa | 0 mm | - | - | - |
| 1777925728 | 12.22° C | 89% | 1015.8 hPa | 0 mm | - | - | - |
| 1777914921 | 12.78° C | 89% | 1015.8 hPa | 0 mm | - | - | - |
| 1777905016 | 18.89° C | 56% | 1014.7 hPa | 0 mm | - | - | - |
| 1777899613 | 20.56° C | 50% | 1014.5 hPa | 0 mm | - | - | - |
| 1777895105 | 20° C | 55% | 1014.8 hPa | 0 mm | - | - | - |
| 1777894202 | 20° C | 58% | 1014.8 hPa | 0 mm | - | - | - |
| 1777889747 | 17.78° C | 65% | 1015.2 hPa | 0 mm | - | - | - |
| 1777885237 | 17.78° C | 66% | 1016.2 hPa | 0 mm | - | - | - |
| 1777883430 | 16.67° C | 72% | 1016.3 hPa | 0 mm | - | - | - |
| 1777882526 | 16.11° C | 75% | 1016.4 hPa | 0 mm | - | - | - |
| 1777878910 | 12.78° C | 85% | 1016.7 hPa | 0 mm | - | - | - |
| 1777869051 | 11.11° C | 90% | 1016.5 hPa | 0 mm | - | - | - |
| 1777864536 | 11.11° C | 91% | 1016.8 hPa | 0 mm | - | - | - |
| 1777862736 | 11.11° C | 90% | 1017 hPa | 0 mm | - | - | - |
| 1777857329 | 11.67° C | 90% | 1017 hPa | 0 mm | - | - | - |
| 1777841105 | 13.33° C | 83% | 1016.7 hPa | 0 mm | - | - | - |
| 1777837503 | 13.89° C | 84% | 1016.9 hPa | 0 mm | - | - | - |
| 1777833063 | 15.56° C | 83% | 1016 hPa | 0 mm | - | - | - |
| 1777828557 | 16.11° C | 85% | 1015.9 hPa | 0 mm | - | - | - |
| 1777818656 | 21.11° C | 51% | 1015.1 hPa | 0 mm | - | - | - |
| 1777817762 | 22.22° C | 50% | 1015 hPa | 0 mm | - | - | - |
| 1777816850 | 22.78° C | 47% | 1014.8 hPa | 0 mm | - | - | - |
| 1777813243 | 22.78° C | 47% | 1015.1 hPa | 0 mm | - | - | - |
* Rain latest hour (hover to see other rain measurements)
** Current wind speed in m/s (hover to see current wind gust speed)